KCKB/CKB METAR and TAF weather

Enter ICAO airport designator
Station Type Date Time Source
KCKB METAR 2020/11/28 19:53 UTC NOAA

KCKB 281953Z 30008KT 10SM CLR 10/M04 A3014 RMK AO2 SLP205 T01001039


Station Type Date Time Source
KCKB Decoded METAR 2020/11/28 19:53 UTC NOAA

HARRISON/MARION REGIONAL, WV, United States (KCKB) 39-18N 080-13W 360M
Nov 28, 2020 - 02:53 PM EST / 2020.11.28 1953 UTC
Wind: from the WNW (300 degrees) at 9 MPH (8 KT):0
Visibility: 10 mile(s):0
Sky conditions: clear
Temperature: 50.0 F (10.0 C)
Dew Point: 25.0 F (-3.9 C)
Relative Humidity: 37%
Pressure (altimeter): 30.14 in. Hg (1020 hPa)
ob: KCKB 281953Z 30008KT 10SM CLR 10/M04 A3014 RMK AO2 SLP205 T01001039
cycle: 20

Station Type Date Time Source
KCKB TAF 2020/11/28 18:24 UTC NOAA

TAF KCKB 281723Z 2818/2918 28006KT P6SM FEW030
FM290000 00000KT P6SM FEW250

Example: see airport list